createdAt,value
2018-02-21T00:03:04.393Z,34.80
2018-02-21T00:07:55.319Z,32.27
2018-02-21T00:12:46.220Z,29.20
2018-02-21T00:17:37.968Z,36.90
2018-02-21T00:22:28.940Z,30.83
2018-02-21T00:27:19.836Z,41.80
2018-02-21T00:32:10.740Z,34.70
2018-02-21T00:37:01.637Z,37.60
2018-02-21T00:41:52.540Z,36.70
2018-02-21T00:46:44.180Z,34.43
2018-02-21T00:51:35.821Z,30.40
2018-02-21T00:56:27.460Z,34.37
2018-02-21T01:01:18.367Z,34.23
2018-02-21T01:06:10.069Z,31.40
2018-02-21T01:11:08.092Z,30.90
2018-02-21T01:15:59.729Z,26.87
2018-02-21T01:20:51.428Z,31.20
2018-02-21T01:25:42.333Z,35.50
2018-02-21T01:30:33.232Z,41.13
2018-02-21T01:35:24.189Z,32.33
2018-02-21T01:40:15.136Z,37.10
2018-02-21T01:45:06.789Z,37.70
2018-02-21T01:49:58.500Z,36.23
2018-02-21T01:54:49.416Z,33.30
2018-02-21T01:59:40.349Z,37.90
2018-02-21T02:04:32.010Z,37.70
2018-02-21T02:09:22.943Z,27.73
2018-02-21T02:14:13.878Z,40.43
2018-02-21T02:19:04.788Z,30.60
2018-02-21T02:23:55.727Z,27.77
2018-02-21T02:28:46.683Z,41.33
2018-02-21T02:33:38.343Z,40.90
2018-02-21T02:38:39.555Z,34.90
2018-02-21T02:43:30.498Z,31.10
2018-02-21T02:48:22.160Z,35.30
2018-02-21T02:53:13.160Z,32.27
2018-02-21T02:58:04.848Z,30.23
2018-02-21T03:02:55.761Z,36.20
2018-02-21T03:07:46.699Z,35.87
2018-02-21T03:12:37.636Z,35.53
2018-02-21T03:17:28.652Z,32.53
2018-02-21T03:22:19.579Z,31.40
2018-02-21T03:27:10.600Z,34.80
2018-02-21T03:32:01.527Z,30.13
2018-02-21T03:36:52.510Z,29.53
2018-02-21T03:41:43.476Z,34.33
2018-02-21T03:46:35.133Z,34.90
2018-02-21T03:51:26.057Z,37.57
2018-02-21T03:56:17.067Z,28.77
2018-02-21T04:01:08.002Z,31.93
2018-02-21T04:05:58.925Z,33.80
2018-02-21T04:10:49.924Z,27.50
2018-02-21T04:15:41.775Z,34.33
2018-02-21T04:20:32.692Z,38.57
2018-02-21T04:25:24.396Z,36.47
2018-02-21T04:30:15.383Z,37.30
2018-02-21T04:35:06.352Z,31.67
2018-02-21T04:39:58.013Z,27.27
2018-02-21T04:44:49.028Z,33.30
2018-02-21T04:49:39.962Z,33.07
2018-02-21T04:54:30.895Z,37.63
2018-02-21T04:59:26.755Z,30.97
2018-02-21T05:04:17.779Z,32.77
2018-02-21T05:09:08.824Z,34.83
2018-02-21T05:14:00.567Z,35.27
2018-02-21T05:18:52.236Z,31.60
2018-02-21T05:23:43.205Z,31.70
2018-02-21T05:28:34.131Z,24.90
2018-02-21T05:33:25.140Z,35.40
2018-02-21T05:38:16.067Z,32.13
2018-02-21T05:43:07.029Z,29.90
2018-02-21T05:47:57.959Z,28.70
2018-02-21T05:52:48.886Z,31.07
2018-02-21T05:57:39.836Z,23.57
2018-02-21T06:02:30.884Z,29.90
2018-02-21T06:07:22.590Z,29.83
2018-02-21T06:12:13.509Z,36.03
2018-02-21T06:17:04.426Z,27.93
2018-02-21T06:21:55.371Z,36.00
2018-02-21T06:26:47.109Z,27.63
2018-02-21T06:31:38.778Z,26.03
2018-02-21T06:36:29.693Z,27.27
2018-02-21T06:41:20.652Z,33.20
2018-02-21T06:46:11.569Z,29.30
2018-02-21T06:51:02.480Z,29.67
2018-02-21T06:55:53.401Z,25.43
2018-02-21T07:00:45.080Z,27.30
2018-02-21T07:05:36.756Z,27.53
2018-02-21T07:10:27.708Z,25.87
2018-02-21T07:15:18.687Z,27.47
2018-02-21T07:20:10.313Z,27.37
2018-02-21T07:25:01.310Z,21.73
2018-02-21T07:29:53.036Z,19.70
2018-02-21T07:34:44.697Z,28.10
2018-02-21T07:39:35.632Z,23.53
2018-02-21T07:44:26.579Z,25.60
2018-02-21T07:49:17.546Z,30.37
2018-02-21T07:54:09.227Z,34.90
2018-02-21T07:59:00.158Z,42.50
2018-02-21T08:03:51.940Z,41.63
2018-02-21T08:08:42.882Z,44.30
2018-02-21T08:13:33.872Z,41.33
2018-02-21T08:18:25.559Z,34.20
2018-02-21T08:23:17.216Z,32.00
2018-02-21T08:28:08.154Z,34.00
2018-02-21T08:32:59.187Z,37.60
2018-02-21T08:37:50.924Z,42.37
2018-02-21T08:42:42.680Z,34.97
2018-02-21T08:47:33.742Z,35.33
2018-02-21T08:52:24.670Z,38.40
2018-02-21T08:57:15.624Z,43.37
2018-02-21T09:02:07.308Z,32.07
2018-02-21T09:06:58.272Z,34.23
2018-02-21T09:11:49.237Z,32.23
2018-02-21T09:16:40.212Z,33.97
2018-02-21T09:21:31.134Z,40.10
2018-02-21T09:26:22.801Z,33.03
2018-02-21T09:31:13.739Z,33.70
2018-02-21T09:36:04.684Z,39.63
2018-02-21T09:40:55.611Z,36.13
2018-02-21T09:45:46.544Z,37.03
2018-02-21T09:50:38.217Z,41.50
2018-02-21T09:55:29.135Z,52.97
2018-02-21T10:00:20.055Z,38.93
2018-02-21T10:05:10.990Z,43.30
2018-02-21T10:10:01.921Z,36.90
2018-02-21T10:14:52.865Z,43.93
2018-02-21T10:19:44.599Z,33.80
2018-02-21T10:24:36.279Z,53.00
2018-02-21T10:29:27.215Z,42.30
2018-02-21T10:34:18.152Z,48.63
2018-02-21T10:39:09.099Z,40.57
2018-02-21T10:44:00.775Z,38.37
2018-02-21T10:48:51.750Z,52.57
2018-02-21T10:53:42.734Z,51.63
2018-02-21T10:58:33.629Z,54.20
2018-02-21T11:03:24.572Z,46.43
2018-02-21T11:08:15.516Z,46.33
2018-02-21T11:13:06.457Z,55.37
2018-02-21T11:17:58.148Z,57.37
2018-02-21T11:22:49.061Z,46.93
2018-02-21T11:27:39.977Z,47.67
2018-02-21T11:32:30.901Z,53.13
2018-02-21T11:37:21.818Z,44.33
2018-02-21T11:42:13.487Z,41.87
2018-02-21T11:47:04.400Z,39.60
2018-02-21T11:51:55.352Z,42.13
2018-02-21T11:56:46.265Z,44.63
2018-02-21T12:01:37.948Z,35.30
2018-02-21T12:06:28.868Z,35.13
2018-02-21T12:11:19.808Z,29.10
2018-02-21T12:16:10.735Z,30.27
2018-02-21T12:21:01.664Z,30.50
2018-02-21T12:25:53.336Z,25.90
2018-02-21T12:30:44.273Z,29.83
2018-02-21T12:35:35.257Z,31.20
2018-02-21T12:40:32.446Z,29.00
2018-02-21T12:45:23.362Z,22.17
2018-02-21T12:50:14.294Z,19.40
2018-02-21T12:55:05.261Z,17.83
2018-02-21T12:59:56.989Z,19.63
2018-02-21T13:04:47.907Z,19.47
2018-02-21T13:09:38.821Z,15.53
2018-02-21T13:14:29.737Z,14.53
2018-02-21T13:19:20.679Z,18.57
2018-02-21T13:24:12.341Z,10.37
2018-02-21T13:29:03.276Z,12.00
2018-02-21T13:33:54.235Z,13.53
2018-02-21T13:38:45.148Z,9.80
2018-02-21T13:43:36.187Z,10.13
2018-02-21T13:48:27.867Z,10.10
2018-02-21T13:53:18.805Z,10.33
2018-02-21T13:58:09.803Z,9.53
2018-02-21T14:03:00.749Z,8.30
2018-02-21T14:07:51.696Z,10.73
2018-02-21T14:12:43.365Z,8.20
2018-02-21T14:17:34.300Z,8.40
2018-02-21T14:22:25.217Z,10.53
2018-02-21T14:27:16.175Z,7.00
2018-02-21T14:32:07.340Z,7.43
2018-02-21T14:36:58.344Z,7.70
2018-02-21T14:41:50.024Z,6.50
2018-02-21T14:46:40.948Z,6.23
2018-02-21T14:51:31.881Z,9.07
2018-02-21T14:56:22.816Z,8.60
2018-02-21T15:01:13.763Z,7.77
2018-02-21T15:06:04.689Z,7.80
2018-02-21T15:10:55.616Z,7.57
2018-02-21T15:15:46.545Z,6.73
2018-02-21T15:20:37.483Z,8.30
2018-02-21T15:25:28.413Z,10.80
2018-02-21T15:30:19.355Z,8.80
2018-02-21T15:35:11.033Z,9.53
2018-02-21T15:40:02.005Z,10.23
2018-02-21T15:44:52.939Z,12.53
2018-02-21T15:49:44.670Z,8.70
2018-02-21T15:54:36.363Z,9.27
2018-02-21T15:59:27.326Z,8.53
2018-02-21T16:04:19.013Z,11.80
2018-02-21T16:09:09.947Z,8.03
2018-02-21T16:14:00.882Z,10.57
2018-02-21T16:18:51.804Z,10.20
2018-02-21T16:23:42.717Z,16.20
2018-02-21T16:28:33.653Z,11.70
2018-02-21T16:33:25.405Z,9.57
2018-02-21T16:38:17.089Z,10.83
2018-02-21T16:43:08.036Z,13.23
2018-02-21T16:47:58.986Z,11.33
2018-02-21T16:52:49.943Z,8.30
2018-02-21T16:57:40.881Z,10.70
2018-02-21T17:02:31.820Z,12.10
2018-02-21T17:07:22.760Z,9.53
2018-02-21T17:12:13.699Z,11.43
2018-02-21T17:17:04.626Z,13.60
2018-02-21T17:21:55.576Z,8.93
2018-02-21T17:26:46.535Z,12.87
2018-02-21T17:31:38.185Z,11.43
2018-02-21T17:36:29.131Z,10.60
2018-02-21T17:41:26.147Z,13.77
2018-02-21T17:46:17.822Z,13.03
2018-02-21T17:51:08.827Z,13.33
2018-02-21T17:55:59.762Z,12.73
2018-02-21T18:00:50.696Z,12.63
2018-02-21T18:05:41.658Z,14.43
2018-02-21T18:10:32.599Z,10.10
2018-02-21T18:15:23.542Z,10.97
2018-02-21T18:20:14.491Z,11.40
2018-02-21T18:25:05.485Z,17.87
2018-02-21T18:29:56.457Z,12.20
2018-02-21T18:34:48.187Z,11.73
2018-02-21T18:39:39.856Z,13.00
2018-02-21T18:44:30.858Z,14.00
2018-02-21T18:49:22.542Z,14.20
2018-02-21T18:54:13.487Z,14.73
2018-02-21T18:59:04.420Z,13.20
2018-02-21T19:03:56.084Z,13.63
2018-02-21T19:08:47.032Z,11.23
2018-02-21T19:13:37.949Z,10.30
2018-02-21T19:18:28.876Z,10.30
2018-02-21T19:23:19.802Z,10.23
2018-02-21T19:28:10.791Z,12.73
2018-02-21T19:33:01.768Z,10.50
2018-02-21T19:37:53.451Z,8.43
2018-02-21T19:42:44.372Z,10.07
2018-02-21T19:47:35.333Z,11.93
2018-02-21T19:52:27.005Z,12.63
2018-02-21T19:57:17.945Z,11.67
2018-02-21T20:02:08.968Z,11.67
2018-02-21T20:06:59.892Z,14.23
2018-02-21T20:11:50.823Z,13.07
2018-02-21T20:16:41.764Z,11.30
2018-02-21T20:21:32.684Z,8.33
2018-02-21T20:26:23.611Z,11.07
2018-02-21T20:31:15.289Z,9.60
2018-02-21T20:36:06.437Z,13.50
2018-02-21T20:40:57.441Z,12.07
2018-02-21T20:45:48.397Z,9.80
2018-02-21T20:50:39.454Z,10.90
2018-02-21T20:55:30.412Z,13.83
2018-02-21T21:00:21.332Z,13.40
2018-02-21T21:05:12.248Z,13.37
2018-02-21T21:10:03.209Z,8.43
2018-02-21T21:14:54.864Z,13.87
2018-02-21T21:19:45.789Z,15.00
2018-02-21T21:24:36.700Z,11.50
2018-02-21T21:29:27.681Z,11.77
2018-02-21T21:34:18.601Z,15.43
2018-02-21T21:39:09.648Z,14.67
2018-02-21T21:44:01.357Z,12.90
2018-02-21T21:48:53.022Z,12.80
2018-02-21T21:53:44.703Z,12.33
2018-02-21T21:58:35.667Z,11.47
2018-02-21T22:03:27.464Z,11.60
2018-02-21T22:08:18.399Z,12.67
2018-02-21T22:13:09.383Z,12.40
2018-02-21T22:18:00.315Z,11.53
2018-02-21T22:22:51.306Z,11.50
2018-02-21T22:27:42.307Z,11.77
2018-02-21T22:32:34.052Z,11.87
2018-02-21T22:37:25.811Z,15.10
2018-02-21T22:42:16.808Z,11.83
2018-02-21T22:47:08.469Z,14.57
2018-02-21T22:56:59.516Z,12.27
2018-02-21T23:01:50.474Z,12.97
2018-02-21T23:06:41.420Z,10.13
2018-02-21T23:11:32.344Z,12.97
2018-02-21T23:16:23.291Z,11.30
2018-02-21T23:21:14.220Z,14.03
2018-02-21T23:26:05.201Z,9.80
2018-02-21T23:30:56.134Z,15.33
2018-02-21T23:35:47.815Z,14.93
2018-02-21T23:40:38.751Z,12.43
2018-02-21T23:45:29.673Z,10.60
2018-02-21T23:50:20.612Z,11.07
2018-02-21T23:55:11.538Z,13.83
